Terminal Aerodrome Forecast
Issued by NWS Billings, MT

Home | Current Version | Previous Version | Text Only | Print | Product List | Glossary On
Versions: 1 2 3 4 5 6 7 8 9 10 11 12 13 14
000
FTUS45 KBYZ 251720
TAFSHR
TAF
KSHR 251720Z 2518/2618 35010KT P6SM FEW100 BKN200
     FM252100 06010KT P6SM VCTS SCT070CB BKN120
     FM260300 VRB06KT P6SM BKN200=

USA.gov is the U.S. government's official web portal to all federal, state and local government web resources and services.